sensor_id;sensor_type;location;lat;lon;timestamp;temperature;humidity
22112;DHT22;11222;50.872;4.312;2024-03-06T00:01:58;8.60;99.90
22112;DHT22;11222;50.872;4.312;2024-03-06T00:04:23;8.60;99.90
22112;DHT22;11222;50.872;4.312;2024-03-06T00:06:49;8.70;99.90
22112;DHT22;11222;50.872;4.312;2024-03-06T00:09:17;8.70;99.90
22112;DHT22;11222;50.872;4.312;2024-03-06T00:11:43;8.60;99.90
22112;DHT22;11222;50.872;4.312;2024-03-06T00:14:09;8.60;99.90
22112;DHT22;11222;50.872;4.312;2024-03-06T00:16:37;8.50;99.90
22112;DHT22;11222;50.872;4.312;2024-03-06T00:19:03;8.50;99.90
22112;DHT22;11222;50.872;4.312;2024-03-06T00:21:28;8.50;99.90
22112;DHT22;11222;50.872;4.312;2024-03-06T00:23:55;8.50;99.90
22112;DHT22;11222;50.872;4.312;2024-03-06T00:26:21;8.40;99.90
22112;DHT22;11222;50.872;4.312;2024-03-06T00:28:47;8.40;99.90
22112;DHT22;11222;50.872;4.312;2024-03-06T00:31:12;8.40;99.90
22112;DHT22;11222;50.872;4.312;2024-03-06T00:33:38;8.30;99.90
22112;DHT22;11222;50.872;4.312;2024-03-06T00:36:03;8.30;99.90
22112;DHT22;11222;50.872;4.312;2024-03-06T00:38:29;8.30;99.90
22112;DHT22;11222;50.872;4.312;2024-03-06T00:40:55;8.30;99.90
22112;DHT22;11222;50.872;4.312;2024-03-06T00:43:22;8.30;99.90
22112;DHT22;11222;50.872;4.312;2024-03-06T00:45:48;8.40;99.90
22112;DHT22;11222;50.872;4.312;2024-03-06T00:48:13;8.40;99.90
22112;DHT22;11222;50.872;4.312;2024-03-06T00:50:39;8.50;99.90
22112;DHT22;11222;50.872;4.312;2024-03-06T00:53:05;8.60;99.90
22112;DHT22;11222;50.872;4.312;2024-03-06T00:55:31;8.60;99.90
22112;DHT22;11222;50.872;4.312;2024-03-06T00:57:56;8.70;99.90
22112;DHT22;11222;50.872;4.312;2024-03-06T01:00:22;8.70;99.90
22112;DHT22;11222;50.872;4.312;2024-03-06T01:02:47;8.70;99.90
22112;DHT22;11222;50.872;4.312;2024-03-06T01:05:13;8.70;99.90
22112;DHT22;11222;50.872;4.312;2024-03-06T01:07:39;8.60;99.90
22112;DHT22;11222;50.872;4.312;2024-03-06T01:10:08;8.50;99.90
22112;DHT22;11222;50.872;4.312;2024-03-06T01:12:33;8.40;99.90
22112;DHT22;11222;50.872;4.312;2024-03-06T01:14:59;8.40;99.90
22112;DHT22;11222;50.872;4.312;2024-03-06T01:17:24;8.30;99.90
22112;DHT22;11222;50.872;4.312;2024-03-06T01:19:50;8.30;99.90
22112;DHT22;11222;50.872;4.312;2024-03-06T01:22:16;8.30;99.90
22112;DHT22;11222;50.872;4.312;2024-03-06T01:24:41;8.30;99.90
22112;DHT22;11222;50.872;4.312;2024-03-06T01:27:07;8.30;99.90
22112;DHT22;11222;50.872;4.312;2024-03-06T01:29:33;8.30;99.90
22112;DHT22;11222;50.872;4.312;2024-03-06T01:31:59;8.30;99.90
22112;DHT22;11222;50.872;4.312;2024-03-06T01:34:24;8.30;99.90
22112;DHT22;11222;50.872;4.312;2024-03-06T01:36:51;8.30;99.90
22112;DHT22;11222;50.872;4.312;2024-03-06T01:39:16;8.20;99.90
22112;DHT22;11222;50.872;4.312;2024-03-06T01:41:45;8.20;99.90
22112;DHT22;11222;50.872;4.312;2024-03-06T01:44:11;8.10;99.90
22112;DHT22;11222;50.872;4.312;2024-03-06T01:46:36;8.10;99.90
22112;DHT22;11222;50.872;4.312;2024-03-06T01:49:02;8.10;99.90
22112;DHT22;11222;50.872;4.312;2024-03-06T01:51:27;8.10;99.90
22112;DHT22;11222;50.872;4.312;2024-03-06T01:53:53;8.10;99.90
22112;DHT22;11222;50.872;4.312;2024-03-06T01:56:19;8.10;99.90
22112;DHT22;11222;50.872;4.312;2024-03-06T01:58:45;8.00;99.90
22112;DHT22;11222;50.872;4.312;2024-03-06T02:01:11;8.00;99.90
22112;DHT22;11222;50.872;4.312;2024-03-06T02:03:37;8.00;99.90
22112;DHT22;11222;50.872;4.312;2024-03-06T02:06:02;8.00;99.90
22112;DHT22;11222;50.872;4.312;2024-03-06T02:08:28;7.90;99.90
22112;DHT22;11222;50.872;4.312;2024-03-06T02:10:54;7.90;99.90
22112;DHT22;11222;50.872;4.312;2024-03-06T02:13:20;7.90;99.90
22112;DHT22;11222;50.872;4.312;2024-03-06T02:15:46;7.90;99.90
22112;DHT22;11222;50.872;4.312;2024-03-06T02:18:12;8.10;99.90
22112;DHT22;11222;50.872;4.312;2024-03-06T02:20:37;8.00;99.90
22112;DHT22;11222;50.872;4.312;2024-03-06T02:23:03;8.10;99.90
22112;DHT22;11222;50.872;4.312;2024-03-06T02:25:29;8.10;99.90
22112;DHT22;11222;50.872;4.312;2024-03-06T02:27:54;8.20;99.90
22112;DHT22;11222;50.872;4.312;2024-03-06T02:30:20;8.20;99.90
22112;DHT22;11222;50.872;4.312;2024-03-06T02:32:48;8.20;99.90
22112;DHT22;11222;50.872;4.312;2024-03-06T02:35:14;8.10;99.90
22112;DHT22;11222;50.872;4.312;2024-03-06T02:37:41;8.10;99.90
22112;DHT22;11222;50.872;4.312;2024-03-06T02:40:06;8.00;99.90
22112;DHT22;11222;50.872;4.312;2024-03-06T02:42:32;8.00;99.90
22112;DHT22;11222;50.872;4.312;2024-03-06T02:44:58;7.90;99.90
22112;DHT22;11222;50.872;4.312;2024-03-06T02:47:23;7.80;99.90
22112;DHT22;11222;50.872;4.312;2024-03-06T02:49:49;7.70;99.90
22112;DHT22;11222;50.872;4.312;2024-03-06T02:52:15;7.80;99.90
22112;DHT22;11222;50.872;4.312;2024-03-06T02:54:41;7.70;99.90
22112;DHT22;11222;50.872;4.312;2024-03-06T02:57:07;7.70;99.90
22112;DHT22;11222;50.872;4.312;2024-03-06T02:59:33;7.70;99.90
22112;DHT22;11222;50.872;4.312;2024-03-06T03:01:58;7.70;99.90
22112;DHT22;11222;50.872;4.312;2024-03-06T03:04:25;7.60;99.90
22112;DHT22;11222;50.872;4.312;2024-03-06T03:06:51;7.60;99.90
22112;DHT22;11222;50.872;4.312;2024-03-06T03:09:17;7.60;99.90
22112;DHT22;11222;50.872;4.312;2024-03-06T03:11:42;7.60;99.90
22112;DHT22;11222;50.872;4.312;2024-03-06T03:14:09;7.40;99.90
22112;DHT22;11222;50.872;4.312;2024-03-06T03:16:34;7.40;99.90
22112;DHT22;11222;50.872;4.312;2024-03-06T03:19:01;7.30;99.90
22112;DHT22;11222;50.872;4.312;2024-03-06T03:21:26;7.20;99.90
22112;DHT22;11222;50.872;4.312;2024-03-06T03:23:52;7.20;99.90
22112;DHT22;11222;50.872;4.312;2024-03-06T03:26:17;7.20;99.90
22112;DHT22;11222;50.872;4.312;2024-03-06T03:28:43;7.10;99.90
22112;DHT22;11222;50.872;4.312;2024-03-06T03:31:08;7.10;99.90
22112;DHT22;11222;50.872;4.312;2024-03-06T03:33:35;7.10;99.90
22112;DHT22;11222;50.872;4.312;2024-03-06T03:36:04;7.10;99.90
22112;DHT22;11222;50.872;4.312;2024-03-06T03:38:29;7.10;99.90
22112;DHT22;11222;50.872;4.312;2024-03-06T03:40:55;7.10;99.90
22112;DHT22;11222;50.872;4.312;2024-03-06T03:43:20;7.10;99.90
22112;DHT22;11222;50.872;4.312;2024-03-06T03:45:46;7.10;99.90
22112;DHT22;11222;50.872;4.312;2024-03-06T03:48:11;7.30;99.90
22112;DHT22;11222;50.872;4.312;2024-03-06T03:50:37;7.20;99.90
22112;DHT22;11222;50.872;4.312;2024-03-06T03:53:03;7.10;99.90
22112;DHT22;11222;50.872;4.312;2024-03-06T03:55:29;7.10;99.90
22112;DHT22;11222;50.872;4.312;2024-03-06T03:57:54;7.20;99.90
22112;DHT22;11222;50.872;4.312;2024-03-06T04:00:20;7.10;99.90
22112;DHT22;11222;50.872;4.312;2024-03-06T04:02:47;7.10;99.90
22112;DHT22;11222;50.872;4.312;2024-03-06T04:05:13;7.20;99.90
22112;DHT22;11222;50.872;4.312;2024-03-06T04:07:39;7.00;99.90
22112;DHT22;11222;50.872;4.312;2024-03-06T04:10:05;7.10;99.90
22112;DHT22;11222;50.872;4.312;2024-03-06T04:12:31;7.20;99.90
22112;DHT22;11222;50.872;4.312;2024-03-06T04:14:57;7.10;99.90
22112;DHT22;11222;50.872;4.312;2024-03-06T04:17:23;7.10;99.90
22112;DHT22;11222;50.872;4.312;2024-03-06T04:19:50;7.20;99.90
22112;DHT22;11222;50.872;4.312;2024-03-06T04:22:18;7.10;99.90
22112;DHT22;11222;50.872;4.312;2024-03-06T04:24:43;7.10;99.90
22112;DHT22;11222;50.872;4.312;2024-03-06T04:27:10;7.00;99.90
22112;DHT22;11222;50.872;4.312;2024-03-06T04:29:35;7.00;99.90
22112;DHT22;11222;50.872;4.312;2024-03-06T04:32:01;7.00;99.90
22112;DHT22;11222;50.872;4.312;2024-03-06T04:34:26;7.00;99.90
22112;DHT22;11222;50.872;4.312;2024-03-06T04:36:52;6.90;99.90
22112;DHT22;11222;50.872;4.312;2024-03-06T04:39:17;6.90;99.90
22112;DHT22;11222;50.872;4.312;2024-03-06T04:41:43;6.90;99.90
22112;DHT22;11222;50.872;4.312;2024-03-06T04:44:08;6.80;99.90
22112;DHT22;11222;50.872;4.312;2024-03-06T04:46:34;6.80;99.90
22112;DHT22;11222;50.872;4.312;2024-03-06T04:49:00;6.80;99.90
22112;DHT22;11222;50.872;4.312;2024-03-06T04:51:25;6.80;99.90
22112;DHT22;11222;50.872;4.312;2024-03-06T04:53:51;6.80;99.90
22112;DHT22;11222;50.872;4.312;2024-03-06T04:56:16;6.70;99.90
22112;DHT22;11222;50.872;4.312;2024-03-06T04:58:44;6.60;99.90
22112;DHT22;11222;50.872;4.312;2024-03-06T05:01:11;6.80;99.90
22112;DHT22;11222;50.872;4.312;2024-03-06T05:03:36;6.70;99.90
22112;DHT22;11222;50.872;4.312;2024-03-06T05:06:04;6.60;99.90
22112;DHT22;11222;50.872;4.312;2024-03-06T05:08:30;6.60;99.90
22112;DHT22;11222;50.872;4.312;2024-03-06T05:10:56;6.60;99.90
22112;DHT22;11222;50.872;4.312;2024-03-06T05:13:22;6.50;99.90
22112;DHT22;11222;50.872;4.312;2024-03-06T05:15:47;6.50;99.90
22112;DHT22;11222;50.872;4.312;2024-03-06T05:18:13;6.60;99.90
22112;DHT22;11222;50.872;4.312;2024-03-06T05:20:38;6.60;99.90
22112;DHT22;11222;50.872;4.312;2024-03-06T05:23:04;6.60;99.90
22112;DHT22;11222;50.872;4.312;2024-03-06T05:25:29;6.70;99.90
22112;DHT22;11222;50.872;4.312;2024-03-06T05:27:55;6.70;99.90
22112;DHT22;11222;50.872;4.312;2024-03-06T05:30:20;6.80;99.90
22112;DHT22;11222;50.872;4.312;2024-03-06T05:32:46;6.70;99.90
22112;DHT22;11222;50.872;4.312;2024-03-06T05:35:12;6.80;99.90
22112;DHT22;11222;50.872;4.312;2024-03-06T05:37:38;6.80;99.90
22112;DHT22;11222;50.872;4.312;2024-03-06T05:40:04;6.80;99.90
22112;DHT22;11222;50.872;4.312;2024-03-06T05:42:30;6.80;99.90
22112;DHT22;11222;50.872;4.312;2024-03-06T05:44:58;6.90;99.90
22112;DHT22;11222;50.872;4.312;2024-03-06T05:47:31;6.80;99.90
22112;DHT22;11222;50.872;4.312;2024-03-06T05:49:57;6.80;99.90
22112;DHT22;11222;50.872;4.312;2024-03-06T05:52:22;6.80;99.90
22112;DHT22;11222;50.872;4.312;2024-03-06T05:54:48;6.80;99.90
22112;DHT22;11222;50.872;4.312;2024-03-06T05:57:14;6.80;99.90
22112;DHT22;11222;50.872;4.312;2024-03-06T05:59:40;6.80;99.90
22112;DHT22;11222;50.872;4.312;2024-03-06T06:02:06;6.70;99.90
22112;DHT22;11222;50.872;4.312;2024-03-06T06:04:31;6.70;99.90
22112;DHT22;11222;50.872;4.312;2024-03-06T06:06:57;6.60;99.90
22112;DHT22;11222;50.872;4.312;2024-03-06T06:09:22;6.40;99.90
22112;DHT22;11222;50.872;4.312;2024-03-06T06:11:48;6.40;99.90
22112;DHT22;11222;50.872;4.312;2024-03-06T06:14:15;6.40;99.90
22112;DHT22;11222;50.872;4.312;2024-03-06T06:16:41;6.30;99.90
22112;DHT22;11222;50.872;4.312;2024-03-06T06:19:08;6.30;99.90
22112;DHT22;11222;50.872;4.312;2024-03-06T06:21:33;6.40;99.90
22112;DHT22;11222;50.872;4.312;2024-03-06T06:24:04;6.30;99.90
22112;DHT22;11222;50.872;4.312;2024-03-06T06:26:29;6.40;99.90
22112;DHT22;11222;50.872;4.312;2024-03-06T06:28:56;6.40;99.90
22112;DHT22;11222;50.872;4.312;2024-03-06T06:31:22;6.50;99.90
22112;DHT22;11222;50.872;4.312;2024-03-06T06:33:49;6.50;99.90
22112;DHT22;11222;50.872;4.312;2024-03-06T06:36:14;6.60;99.90
22112;DHT22;11222;50.872;4.312;2024-03-06T06:38:40;6.60;99.90
22112;DHT22;11222;50.872;4.312;2024-03-06T06:41:05;6.50;99.90
22112;DHT22;11222;50.872;4.312;2024-03-06T06:43:31;6.70;99.90
22112;DHT22;11222;50.872;4.312;2024-03-06T06:45:56;6.60;99.90
22112;DHT22;11222;50.872;4.312;2024-03-06T06:48:22;6.60;99.90
22112;DHT22;11222;50.872;4.312;2024-03-06T06:50:48;6.70;99.90
22112;DHT22;11222;50.872;4.312;2024-03-06T06:53:13;6.80;99.90
22112;DHT22;11222;50.872;4.312;2024-03-06T06:55:39;6.80;99.90
22112;DHT22;11222;50.872;4.312;2024-03-06T06:58:04;6.80;99.90
22112;DHT22;11222;50.872;4.312;2024-03-06T07:00:30;6.80;99.90
22112;DHT22;11222;50.872;4.312;2024-03-06T07:02:56;6.90;99.90
22112;DHT22;11222;50.872;4.312;2024-03-06T07:05:24;6.90;99.90
22112;DHT22;11222;50.872;4.312;2024-03-06T07:07:49;6.90;99.90
22112;DHT22;11222;50.872;4.312;2024-03-06T07:10:15;7.00;99.90
22112;DHT22;11222;50.872;4.312;2024-03-06T07:12:40;7.10;99.90
22112;DHT22;11222;50.872;4.312;2024-03-06T07:15:06;7.20;99.90
22112;DHT22;11222;50.872;4.312;2024-03-06T07:17:32;7.40;99.90
22112;DHT22;11222;50.872;4.312;2024-03-06T07:19:57;7.40;99.90
22112;DHT22;11222;50.872;4.312;2024-03-06T07:22:23;7.40;99.90
22112;DHT22;11222;50.872;4.312;2024-03-06T07:24:48;7.50;99.90
22112;DHT22;11222;50.872;4.312;2024-03-06T07:27:14;7.50;99.90
22112;DHT22;11222;50.872;4.312;2024-03-06T07:29:39;7.50;99.90
22112;DHT22;11222;50.872;4.312;2024-03-06T07:32:05;7.40;99.90
22112;DHT22;11222;50.872;4.312;2024-03-06T07:34:31;7.40;99.90
22112;DHT22;11222;50.872;4.312;2024-03-06T07:36:57;7.40;99.90
22112;DHT22;11222;50.872;4.312;2024-03-06T07:39:24;7.40;99.90
22112;DHT22;11222;50.872;4.312;2024-03-06T07:41:50;7.40;99.90
22112;DHT22;11222;50.872;4.312;2024-03-06T07:44:16;7.50;99.90
22112;DHT22;11222;50.872;4.312;2024-03-06T07:46:41;7.50;99.90
22112;DHT22;11222;50.872;4.312;2024-03-06T07:49:07;7.50;99.90
22112;DHT22;11222;50.872;4.312;2024-03-06T07:51:32;7.50;99.90
22112;DHT22;11222;50.872;4.312;2024-03-06T07:53:58;7.50;99.90
22112;DHT22;11222;50.872;4.312;2024-03-06T07:56:27;7.70;99.90
22112;DHT22;11222;50.872;4.312;2024-03-06T07:58:53;7.60;99.90
22112;DHT22;11222;50.872;4.312;2024-03-06T08:01:19;7.60;99.90
22112;DHT22;11222;50.872;4.312;2024-03-06T08:03:46;7.60;99.90
22112;DHT22;11222;50.872;4.312;2024-03-06T08:06:11;7.60;99.90
22112;DHT22;11222;50.872;4.312;2024-03-06T08:08:42;7.70;99.90
22112;DHT22;11222;50.872;4.312;2024-03-06T08:11:12;7.70;99.90
22112;DHT22;11222;50.872;4.312;2024-03-06T08:13:38;7.70;99.90
22112;DHT22;11222;50.872;4.312;2024-03-06T08:16:04;7.70;99.90
22112;DHT22;11222;50.872;4.312;2024-03-06T08:18:30;7.70;99.90
22112;DHT22;11222;50.872;4.312;2024-03-06T08:20:56;7.70;99.90
22112;DHT22;11222;50.872;4.312;2024-03-06T08:23:21;7.60;99.90
22112;DHT22;11222;50.872;4.312;2024-03-06T08:25:47;7.60;99.90
22112;DHT22;11222;50.872;4.312;2024-03-06T08:28:13;7.70;99.90
22112;DHT22;11222;50.872;4.312;2024-03-06T08:30:38;7.80;99.90
22112;DHT22;11222;50.872;4.312;2024-03-06T08:33:04;7.90;99.90
22112;DHT22;11222;50.872;4.312;2024-03-06T08:35:30;8.00;99.90
22112;DHT22;11222;50.872;4.312;2024-03-06T08:37:55;8.00;99.90
22112;DHT22;11222;50.872;4.312;2024-03-06T08:40:21;8.10;99.90
22112;DHT22;11222;50.872;4.312;2024-03-06T08:42:48;8.10;99.90
22112;DHT22;11222;50.872;4.312;2024-03-06T08:45:14;8.10;99.90
22112;DHT22;11222;50.872;4.312;2024-03-06T08:47:40;8.20;99.90
22112;DHT22;11222;50.872;4.312;2024-03-06T08:50:06;8.10;99.90
22112;DHT22;11222;50.872;4.312;2024-03-06T08:52:33;8.30;99.90
22112;DHT22;11222;50.872;4.312;2024-03-06T08:55:00;8.40;99.90
22112;DHT22;11222;50.872;4.312;2024-03-06T08:57:25;8.50;99.90
22112;DHT22;11222;50.872;4.312;2024-03-06T08:59:56;8.40;99.90
22112;DHT22;11222;50.872;4.312;2024-03-06T09:02:22;8.40;99.90
22112;DHT22;11222;50.872;4.312;2024-03-06T09:04:47;8.40;99.90
22112;DHT22;11222;50.872;4.312;2024-03-06T09:07:13;8.40;99.90
22112;DHT22;11222;50.872;4.312;2024-03-06T09:09:38;8.40;99.90
22112;DHT22;11222;50.872;4.312;2024-03-06T09:12:04;8.50;99.90
22112;DHT22;11222;50.872;4.312;2024-03-06T09:14:31;8.50;99.90
22112;DHT22;11222;50.872;4.312;2024-03-06T09:16:57;8.50;99.90
22112;DHT22;11222;50.872;4.312;2024-03-06T09:19:23;8.60;99.90
22112;DHT22;11222;50.872;4.312;2024-03-06T09:21:48;8.60;99.90
22112;DHT22;11222;50.872;4.312;2024-03-06T09:24:14;8.70;99.90
22112;DHT22;11222;50.872;4.312;2024-03-06T09:26:39;8.70;99.90
22112;DHT22;11222;50.872;4.312;2024-03-06T09:29:05;8.70;99.90
22112;DHT22;11222;50.872;4.312;2024-03-06T09:31:30;8.70;99.90
22112;DHT22;11222;50.872;4.312;2024-03-06T09:33:56;8.90;99.90
22112;DHT22;11222;50.872;4.312;2024-03-06T09:36:22;9.10;99.90
22112;DHT22;11222;50.872;4.312;2024-03-06T09:38:48;9.30;99.90
22112;DHT22;11222;50.872;4.312;2024-03-06T09:41:13;9.40;99.90
22112;DHT22;11222;50.872;4.312;2024-03-06T09:43:39;9.50;99.90
22112;DHT22;11222;50.872;4.312;2024-03-06T09:46:06;9.60;99.90
22112;DHT22;11222;50.872;4.312;2024-03-06T09:48:32;9.50;99.90
22112;DHT22;11222;50.872;4.312;2024-03-06T09:51:00;9.60;99.90
22112;DHT22;11222;50.872;4.312;2024-03-06T09:53:26;9.70;99.90
22112;DHT22;11222;50.872;4.312;2024-03-06T09:55:51;9.90;99.90
22112;DHT22;11222;50.872;4.312;2024-03-06T09:58:17;10.10;99.90
22112;DHT22;11222;50.872;4.312;2024-03-06T10:00:43;10.10;99.90
22112;DHT22;11222;50.872;4.312;2024-03-06T10:03:09;10.10;99.90
22112;DHT22;11222;50.872;4.312;2024-03-06T10:05:36;10.20;99.90
22112;DHT22;11222;50.872;4.312;2024-03-06T10:08:02;10.30;99.90
22112;DHT22;11222;50.872;4.312;2024-03-06T10:10:29;10.50;99.90
22112;DHT22;11222;50.872;4.312;2024-03-06T10:12:55;10.60;99.90
22112;DHT22;11222;50.872;4.312;2024-03-06T10:15:22;10.80;99.90
22112;DHT22;11222;50.872;4.312;2024-03-06T10:17:48;11.10;99.90
22112;DHT22;11222;50.872;4.312;2024-03-06T10:22:50;11.40;99.90
22112;DHT22;11222;50.872;4.312;2024-03-06T10:25:22;11.40;99.90
22112;DHT22;11222;50.872;4.312;2024-03-06T10:30:35;11.80;99.90
22112;DHT22;11222;50.872;4.312;2024-03-06T10:33:04;13.00;99.90
22112;DHT22;11222;50.872;4.312;2024-03-06T10:35:33;15.50;99.90
22112;DHT22;11222;50.872;4.312;2024-03-06T10:38:00;16.10;99.90
22112;DHT22;11222;50.872;4.312;2024-03-06T10:40:26;16.60;99.90
22112;DHT22;11222;50.872;4.312;2024-03-06T10:42:55;17.90;99.90
22112;DHT22;11222;50.872;4.312;2024-03-06T10:45:20;20.40;99.90
22112;DHT22;11222;50.872;4.312;2024-03-06T10:47:49;22.30;99.90
22112;DHT22;11222;50.872;4.312;2024-03-06T10:50:15;24.30;99.90
22112;DHT22;11222;50.872;4.312;2024-03-06T10:52:41;23.30;95.00
22112;DHT22;11222;50.872;4.312;2024-03-06T10:55:07;23.30;94.60
22112;DHT22;11222;50.872;4.312;2024-03-06T10:57:34;22.50;92.10
22112;DHT22;11222;50.872;4.312;2024-03-06T11:00:01;21.40;95.00
22112;DHT22;11222;50.872;4.312;2024-03-06T11:02:27;21.70;94.20
22112;DHT22;11222;50.872;4.312;2024-03-06T11:04:53;20.50;94.20
22112;DHT22;11222;50.872;4.312;2024-03-06T11:07:18;21.10;95.40
22112;DHT22;11222;50.872;4.312;2024-03-06T11:09:44;21.50;93.30
22112;DHT22;11222;50.872;4.312;2024-03-06T11:12:27;21.70;91.60
22112;DHT22;11222;50.872;4.312;2024-03-06T11:14:57;20.30;92.90
22112;DHT22;11222;50.872;4.312;2024-03-06T11:17:25;19.70;95.90
22112;DHT22;11222;50.872;4.312;2024-03-06T11:25:36;24.40;85.90
22112;DHT22;11222;50.872;4.312;2024-03-06T11:28:07;23.60;82.20
22112;DHT22;11222;50.872;4.312;2024-03-06T11:30:40;21.80;86.20
22112;DHT22;11222;50.872;4.312;2024-03-06T11:33:12;20.30;90.20
22112;DHT22;11222;50.872;4.312;2024-03-06T11:35:38;18.60;93.50
22112;DHT22;11222;50.872;4.312;2024-03-06T11:38:05;18.70;95.20
22112;DHT22;11222;50.872;4.312;2024-03-06T11:40:31;19.80;94.70
22112;DHT22;11222;50.872;4.312;2024-03-06T11:43:21;20.30;92.60
22112;DHT22;11222;50.872;4.312;2024-03-06T11:45:45;19.50;93.10
22112;DHT22;11222;50.872;4.312;2024-03-06T11:48:11;19.40;92.20
22112;DHT22;11222;50.872;4.312;2024-03-06T11:50:42;19.80;91.90
22112;DHT22;11222;50.872;4.312;2024-03-06T11:53:08;20.00;91.80
22112;DHT22;11222;50.872;4.312;2024-03-06T11:55:34;20.20;91.50
22112;DHT22;11222;50.872;4.312;2024-03-06T11:57:59;21.60;90.40
22112;DHT22;11222;50.872;4.312;2024-03-06T12:00:25;20.50;90.40
22112;DHT22;11222;50.872;4.312;2024-03-06T12:02:50;19.50;91.30
22112;DHT22;11222;50.872;4.312;2024-03-06T12:05:19;18.70;92.60
22112;DHT22;11222;50.872;4.312;2024-03-06T12:07:47;17.60;94.70
22112;DHT22;11222;50.872;4.312;2024-03-06T12:10:13;17.30;95.80
22112;DHT22;11222;50.872;4.312;2024-03-06T12:12:40;18.30;95.10
22112;DHT22;11222;50.872;4.312;2024-03-06T12:15:06;20.50;91.00
22112;DHT22;11222;50.872;4.312;2024-03-06T12:17:42;21.50;86.10
22112;DHT22;11222;50.872;4.312;2024-03-06T12:20:11;21.10;83.90
22112;DHT22;11222;50.872;4.312;2024-03-06T12:22:49;20.00;86.20
22112;DHT22;11222;50.872;4.312;2024-03-06T12:25:18;18.80;91.10
22112;DHT22;11222;50.872;4.312;2024-03-06T12:27:45;17.60;93.00
22112;DHT22;11222;50.872;4.312;2024-03-06T12:30:10;17.10;93.30
22112;DHT22;11222;50.872;4.312;2024-03-06T12:32:39;17.10;93.70
22112;DHT22;11222;50.872;4.312;2024-03-06T12:35:04;16.80;94.50
22112;DHT22;11222;50.872;4.312;2024-03-06T12:37:31;16.20;95.00
22112;DHT22;11222;50.872;4.312;2024-03-06T12:39:56;15.60;96.30
22112;DHT22;11222;50.872;4.312;2024-03-06T12:42:22;15.20;97.10
22112;DHT22;11222;50.872;4.312;2024-03-06T12:44:49;14.90;98.10
22112;DHT22;11222;50.872;4.312;2024-03-06T12:47:15;14.80;98.70
22112;DHT22;11222;50.872;4.312;2024-03-06T12:49:40;14.60;98.40
22112;DHT22;11222;50.872;4.312;2024-03-06T12:52:06;14.60;98.00
22112;DHT22;11222;50.872;4.312;2024-03-06T12:54:31;14.10;98.10
22112;DHT22;11222;50.872;4.312;2024-03-06T12:56:57;13.80;98.80
22112;DHT22;11222;50.872;4.312;2024-03-06T12:59:22;13.80;99.90
22112;DHT22;11222;50.872;4.312;2024-03-06T13:01:48;13.80;99.90
22112;DHT22;11222;50.872;4.312;2024-03-06T13:04:13;13.60;99.90
22112;DHT22;11222;50.872;4.312;2024-03-06T13:06:39;13.50;99.90
22112;DHT22;11222;50.872;4.312;2024-03-06T13:09:06;13.50;99.90
22112;DHT22;11222;50.872;4.312;2024-03-06T13:11:32;13.40;99.90
22112;DHT22;11222;50.872;4.312;2024-03-06T13:13:57;13.40;99.90
22112;DHT22;11222;50.872;4.312;2024-03-06T13:16:23;13.40;99.90
22112;DHT22;11222;50.872;4.312;2024-03-06T13:18:49;13.40;99.90
22112;DHT22;11222;50.872;4.312;2024-03-06T13:21:17;13.60;99.90
22112;DHT22;11222;50.872;4.312;2024-03-06T13:23:43;13.70;99.90
22112;DHT22;11222;50.872;4.312;2024-03-06T13:26:08;13.60;99.90
22112;DHT22;11222;50.872;4.312;2024-03-06T13:28:34;13.50;99.90
22112;DHT22;11222;50.872;4.312;2024-03-06T13:31:00;13.50;99.90
22112;DHT22;11222;50.872;4.312;2024-03-06T13:33:25;13.40;99.90
22112;DHT22;11222;50.872;4.312;2024-03-06T13:35:53;13.40;99.90
22112;DHT22;11222;50.872;4.312;2024-03-06T13:38:19;13.40;99.90
22112;DHT22;11222;50.872;4.312;2024-03-06T13:40:45;13.40;99.90
22112;DHT22;11222;50.872;4.312;2024-03-06T13:43:11;13.20;99.90
22112;DHT22;11222;50.872;4.312;2024-03-06T13:45:36;13.10;99.90
22112;DHT22;11222;50.872;4.312;2024-03-06T13:48:02;13.00;99.90
22112;DHT22;11222;50.872;4.312;2024-03-06T13:50:29;13.00;99.90
22112;DHT22;11222;50.872;4.312;2024-03-06T13:52:55;13.00;99.90
22112;DHT22;11222;50.872;4.312;2024-03-06T13:55:20;13.10;99.90
22112;DHT22;11222;50.872;4.312;2024-03-06T13:57:46;13.30;99.90
22112;DHT22;11222;50.872;4.312;2024-03-06T14:00:12;13.40;99.90
22112;DHT22;11222;50.872;4.312;2024-03-06T14:02:41;13.40;99.90
22112;DHT22;11222;50.872;4.312;2024-03-06T14:05:07;13.50;99.90
22112;DHT22;11222;50.872;4.312;2024-03-06T14:07:33;13.50;99.90
22112;DHT22;11222;50.872;4.312;2024-03-06T14:09:59;13.50;99.90
22112;DHT22;11222;50.872;4.312;2024-03-06T14:12:24;13.60;99.90
22112;DHT22;11222;50.872;4.312;2024-03-06T14:14:50;13.80;99.90
22112;DHT22;11222;50.872;4.312;2024-03-06T14:17:15;13.50;99.90
22112;DHT22;11222;50.872;4.312;2024-03-06T14:19:41;13.30;99.90
22112;DHT22;11222;50.872;4.312;2024-03-06T14:22:08;13.20;99.90
22112;DHT22;11222;50.872;4.312;2024-03-06T14:24:33;13.10;99.90
22112;DHT22;11222;50.872;4.312;2024-03-06T14:26:59;13.10;99.90
22112;DHT22;11222;50.872;4.312;2024-03-06T14:29:25;13.20;99.90
22112;DHT22;11222;50.872;4.312;2024-03-06T14:31:52;13.30;99.90
22112;DHT22;11222;50.872;4.312;2024-03-06T14:34:18;13.20;99.90
22112;DHT22;11222;50.872;4.312;2024-03-06T14:36:45;13.10;99.90
22112;DHT22;11222;50.872;4.312;2024-03-06T14:39:11;13.20;99.90
22112;DHT22;11222;50.872;4.312;2024-03-06T14:41:37;13.30;99.90
22112;DHT22;11222;50.872;4.312;2024-03-06T14:44:02;13.40;99.90
22112;DHT22;11222;50.872;4.312;2024-03-06T14:46:28;13.50;99.90
22112;DHT22;11222;50.872;4.312;2024-03-06T14:48:54;13.60;99.90
22112;DHT22;11222;50.872;4.312;2024-03-06T14:51:20;13.60;99.90
22112;DHT22;11222;50.872;4.312;2024-03-06T14:53:45;13.40;99.90
22112;DHT22;11222;50.872;4.312;2024-03-06T14:56:11;13.30;99.90
22112;DHT22;11222;50.872;4.312;2024-03-06T14:58:37;13.30;99.90
22112;DHT22;11222;50.872;4.312;2024-03-06T15:01:03;13.40;99.90
22112;DHT22;11222;50.872;4.312;2024-03-06T15:03:28;13.40;99.90
22112;DHT22;11222;50.872;4.312;2024-03-06T15:05:54;13.60;99.90
22112;DHT22;11222;50.872;4.312;2024-03-06T15:08:19;13.70;99.90
22112;DHT22;11222;50.872;4.312;2024-03-06T15:10:45;13.70;99.90
22112;DHT22;11222;50.872;4.312;2024-03-06T15:13:11;13.70;99.90
22112;DHT22;11222;50.872;4.312;2024-03-06T15:15:41;13.60;99.90
22112;DHT22;11222;50.872;4.312;2024-03-06T15:18:06;13.50;99.90
22112;DHT22;11222;50.872;4.312;2024-03-06T15:20:32;13.40;99.90
22112;DHT22;11222;50.872;4.312;2024-03-06T15:22:59;13.20;99.90
22112;DHT22;11222;50.872;4.312;2024-03-06T15:25:24;13.10;99.90
22112;DHT22;11222;50.872;4.312;2024-03-06T15:27:50;13.10;99.90
22112;DHT22;11222;50.872;4.312;2024-03-06T15:30:16;13.00;99.90
22112;DHT22;11222;50.872;4.312;2024-03-06T15:32:42;13.10;99.90
22112;DHT22;11222;50.872;4.312;2024-03-06T15:35:08;13.20;99.90
22112;DHT22;11222;50.872;4.312;2024-03-06T15:37:34;13.50;99.90
22112;DHT22;11222;50.872;4.312;2024-03-06T15:39:59;13.60;99.90
22112;DHT22;11222;50.872;4.312;2024-03-06T15:42:25;13.50;99.90
22112;DHT22;11222;50.872;4.312;2024-03-06T15:44:51;13.60;99.90